Time;durP1;ratioP1;P1;durP2;ratioP2;P2;SDS_P1;SDS_P2;PMS_P1;PMS_P2;Temp;Humidity;BMP_temperature;BMP_pressure;BME280_temperature;BME280_humidity;BME280_pressure;Samples;Min_cycle;Max_cycle;Signal;HPM_P1;HPM_P2
2022/03/25 00:02:14;;;;;;;42.75;38.65;;;;;;;7.48;100.00;102864.06;5200302;28;20029;-83
2022/03/25 00:04:44;;;;;;;42.10;37.83;;;;;;;7.62;100.00;102901.69;5200967;28;20022;-83
2022/03/25 00:07:15;;;;;;;40.70;36.47;;;;;;;7.19;100.00;102830.81;5201049;28;20071;-83
2022/03/25 00:09:45;;;;;;;53.28;40.42;;;;;;;7.63;100.00;102881.00;5201121;28;20255;-83
2022/03/25 00:12:16;;;;;;;51.53;39.70;;;;;;;7.38;100.00;102851.75;5200878;28;20057;-83
2022/03/25 00:14:46;;;;;;;43.85;39.28;;;;;;;7.38;100.00;102850.91;5200596;28;20022;-83
2022/03/25 00:17:16;;;;;;;49.65;41.40;;;;;;;7.50;100.00;102867.41;5183047;28;20543;-83
2022/03/25 00:19:47;;;;;;;41.58;37.08;;;;;;;7.54;100.00;102882.13;5200839;28;20028;-82
2022/03/25 00:22:17;;;;;;;43.03;36.53;;;;;;;7.63;100.00;102900.66;5200376;28;20026;-82
2022/03/25 00:24:48;;;;;;;43.65;39.08;;;;;;;7.41;100.00;102880.09;5198921;28;20251;-83
2022/03/25 00:27:18;;;;;;;58.17;40.10;;;;;;;7.25;100.00;102877.56;5182932;28;20037;-82
2022/03/25 00:29:49;;;;;;;46.05;39.80;;;;;;;7.16;100.00;102868.78;5198351;28;20030;-82
2022/03/25 00:32:21;;;;;;;49.50;39.67;;;;;;;7.10;100.00;102872.22;5199700;28;20044;-82
2022/03/25 00:34:52;;;;;;;54.25;38.72;;;;;;;7.22;100.00;102891.41;5199921;28;20037;-83
2022/03/25 00:37:24;;;;;;;45.05;40.10;;;;;;;7.27;100.00;102900.56;5183692;28;20049;-83
2022/03/25 00:39:54;;;;;;;46.63;41.85;;;;;;;7.08;100.00;102884.97;5199812;28;20033;-82
2022/03/25 00:42:25;;;;;;;38.55;34.38;;;;;;;7.09;100.00;102898.25;5201815;28;20038;-83
2022/03/25 00:45:05;;;;;;;39.30;35.10;;;;;;;7.00;100.00;102907.38;5182667;28;20022;-83
2022/03/25 00:47:36;;;;;;;;;;;;;;;6.97;100.00;102907.75;5198518;28;20331;-83
2022/03/25 00:50:07;;;;;;;43.67;37.53;;;;;;;6.69;100.00;102867.22;5180619;28;19915;-84
2022/03/25 00:52:38;;;;;;;45.35;40.47;;;;;;;6.69;100.00;102869.06;5198617;28;20022;-83
2022/03/25 00:55:08;;;;;;;58.63;43.90;;;;;;;6.59;100.00;102869.34;5197284;28;20033;-83
2022/03/25 00:57:39;;;;;;;48.03;40.90;;;;;;;6.56;100.00;102864.31;5196997;28;20493;-83
2022/03/25 01:00:10;;;;;;;48.28;43.13;;;;;;;6.54;100.00;102877.09;5180056;28;20021;-84
2022/03/25 01:02:40;;;;;;;49.83;38.35;;;;;;;6.45;100.00;102872.78;5197006;28;20179;-83
2022/03/25 01:05:12;;;;;;;47.42;37.67;;;;;;;6.45;100.00;102875.47;5178876;28;20110;-82
2022/03/25 01:07:43;;;;;;;49.13;42.85;;;;;;;6.52;100.00;102908.63;5198031;28;20030;-83
2022/03/25 01:10:14;;;;;;;43.08;38.40;;;;;;;6.50;100.00;102888.34;5197766;28;20056;-84
2022/03/25 01:12:45;;;;;;;43.13;34.67;;;;;;;6.52;100.00;102900.59;5182161;28;20242;-84
2022/03/25 01:15:15;;;;;;;44.58;39.10;;;;;;;6.44;100.00;102892.59;5197324;28;20101;-84
2022/03/25 01:17:46;;;;;;;52.05;40.72;;;;;;;6.12;100.00;102847.19;5194922;28;20021;-83
2022/03/25 01:20:17;;;;;;;41.95;36.50;;;;;;;5.92;100.00;102825.38;5176724;28;20029;-83
2022/03/25 01:22:48;;;;;;;40.85;36.83;;;;;;;6.28;100.00;102900.75;5225646;22;20041;-62
2022/03/25 01:25:19;;;;;;;48.10;38.90;;;;;;;6.22;100.00;102904.97;5187954;28;20032;-59
2022/03/25 01:27:49;;;;;;;49.78;38.78;;;;;;;6.17;100.00;102901.16;5188407;28;20037;-64
2022/03/25 01:30:20;;;;;;;42.80;38.28;;;;;;;6.11;100.00;102897.31;5204422;28;20100;-59
2022/03/25 01:32:51;;;;;;;46.80;39.10;;;;;;;6.01;100.00;102891.38;5188422;28;20092;-62
2022/03/25 01:35:24;;;;;;;41.95;35.80;;;;;;;5.96;100.00;102896.41;5188046;28;20025;-59
2022/03/25 01:37:55;;;;;;;39.67;34.97;;;;;;;5.89;100.00;102887.41;5204993;28;20534;-59
2022/03/25 01:40:25;;;;;;;44.45;38.90;;;;;;;5.82;100.00;102881.84;5204891;28;20101;-59
2022/03/25 01:42:56;;;;;;;47.45;41.05;;;;;;;5.85;100.00;102896.75;5204793;28;20483;-59
2022/03/25 01:45:34;;;;;;;61.38;40.33;;;;;;;5.76;100.00;102877.22;5204462;28;20030;-60
2022/03/25 01:48:13;;;;;;;43.58;38.38;;;;;;;5.81;100.00;102880.19;5188473;28;20033;-60
2022/03/25 01:50:46;;;;;;;49.30;39.72;;;;;;;5.86;100.00;102883.19;5205028;28;20025;-60
2022/03/25 01:53:19;;;;;;;39.45;35.30;;;;;;;5.89;100.00;102888.22;5204294;28;20033;-60
2022/03/25 01:55:56;;;;;;;44.13;38.63;;;;;;;5.73;100.00;102873.03;5204101;28;20571;-60
2022/03/25 01:58:28;;;;;;;43.42;36.85;;;;;;;5.76;100.00;102888.78;5204618;28;20033;-59
2022/03/25 02:01:02;;;;;;;48.20;41.05;;;;;;;5.71;100.00;102901.88;5205655;28;20029;-60
2022/03/25 02:03:32;;;;;;;42.35;37.83;;;;;;;5.55;100.00;102869.75;5171126;28;20175;-60
2022/03/25 02:06:04;;;;;;;46.00;41.20;;;;;;;5.64;100.00;102887.47;5204171;28;20108;-60
2022/03/25 02:08:34;;;;;;;46.28;41.45;;;;;;;5.23;100.00;102819.78;5187995;28;20419;-61
2022/03/25 02:11:05;;;;;;;47.25;39.17;;;;;;;5.71;100.00;102895.66;5204363;28;20017;-60
2022/03/25 02:13:36;;;;;;;49.85;39.85;;;;;;;5.67;100.00;102891.66;5204017;28;20424;-60
2022/03/25 02:16:07;;;;;;;55.47;42.53;;;;;;;5.73;100.00;102890.97;5187504;28;20055;-60
2022/03/25 02:18:38;;;;;;;46.97;42.03;;;;;;;5.74;100.00;102887.28;5187182;28;20021;-60
2022/03/25 02:21:08;;;;;;;47.83;42.45;;;;;;;5.73;100.00;102886.44;5204478;28;20083;-60
2022/03/25 02:23:39;;;;;;;49.78;39.83;;;;;;;5.66;100.00;102877.41;5187193;28;20037;-60
2022/03/25 02:26:10;;;;;;;53.20;42.63;;;;;;;5.73;100.00;102880.25;5187819;28;20048;-60
2022/03/25 02:28:40;;;;;;;47.15;41.92;;;;;;;5.80;100.00;102877.69;5204292;28;20033;-59
2022/03/25 02:31:10;;;;;;;58.03;43.17;;;;;;;5.87;100.00;102879.50;5203765;28;20091;-60
2022/03/25 02:33:41;;;;;;;46.17;41.10;;;;;;;5.88;100.00;102886.53;5204047;28;20467;-62
2022/03/25 02:36:11;;;;;;;48.53;43.42;;;;;;;5.84;100.00;102879.84;5205573;28;20029;-61
2022/03/25 02:38:42;;;;;;;48.40;41.08;;;;;;;5.78;100.00;102886.72;5187008;28;20541;-60
2022/03/25 02:41:12;;;;;;;46.92;41.78;;;;;;;5.77;100.00;102868.16;5205074;28;20049;-59
2022/03/25 02:43:43;;;;;;;47.42;41.13;;;;;;;5.79;100.00;102882.19;5203623;28;20037;-58
2022/03/25 02:46:13;;;;;;;50.13;42.17;;;;;;;5.72;100.00;102875.91;5203876;28;20553;-59
2022/03/25 02:48:44;;;;;;;51.35;42.38;;;;;;;5.70;100.00;102886.78;5203840;28;20021;-59
2022/03/25 02:51:14;;;;;;;43.72;39.15;;;;;;;5.58;100.00;102880.13;5203702;28;20514;-62
2022/03/25 02:53:45;;;;;;;58.05;39.22;;;;;;;5.58;100.00;102890.00;5203632;28;20031;-60
2022/03/25 02:56:17;;;;;;;52.60;42.25;;;;;;;5.58;100.00;102890.00;5187770;28;20048;-60
2022/03/25 02:58:48;;;;;;;38.17;34.50;;;;;;;5.59;100.00;102886.31;5203879;28;20524;-60
2022/03/25 03:01:18;;;;;;;47.65;38.78;;;;;;;5.62;100.00;102892.19;5203804;28;20108;-60
2022/03/25 03:03:49;;;;;;;50.13;40.50;;;;;;;5.61;100.00;102887.81;5202951;28;20033;-60
2022/03/25 03:06:20;;;;;;;44.78;39.70;;;;;;;5.59;100.00;102894.38;5203498;28;20029;-60
2022/03/25 03:08:50;;;;;;;44.67;38.03;;;;;;;5.63;100.00;102898.38;5203827;28;20432;-60
2022/03/25 03:11:21;;;;;;;48.25;41.33;;;;;;;5.65;100.00;102899.03;5187247;28;20025;-60
2022/03/25 03:13:51;;;;;;;43.58;38.28;;;;;;;5.61;100.00;102897.72;5204532;28;20090;-63
2022/03/25 03:16:22;;;;;;;47.58;38.25;;;;;;;5.57;100.00;102896.38;5203824;28;21075;-60
2022/03/25 03:18:53;;;;;;;45.35;39.28;;;;;;;5.52;100.00;102902.25;5187274;28;20044;-60
2022/03/25 03:21:27;;;;;;;45.53;38.80;;;;;;;5.47;100.00;102890.41;5203659;28;20111;-60
2022/03/25 03:23:58;;;;;;;42.72;38.38;;;;;;;5.45;100.00;102892.41;5202906;28;20119;-60
2022/03/25 03:26:28;;;;;;;40.70;36.00;;;;;;;5.27;100.00;102877.38;5203462;28;20518;-63
2022/03/25 03:28:59;;;;;;;45.42;38.38;;;;;;;5.33;100.00;102884.72;5204077;28;20396;-59
2022/03/25 03:31:30;;;;;;;49.72;37.58;;;;;;;5.28;100.00;102892.44;5187089;28;20029;-60
2022/03/25 03:34:00;;;;;;;41.83;36.22;;;;;;;5.29;100.00;102904.00;5204855;28;20540;-60
2022/03/25 03:36:30;;;;;;;41.80;36.25;;;;;;;5.26;100.00;102886.41;5207359;28;20380;-60
2022/03/25 03:39:01;;;;;;;44.28;38.15;;;;;;;5.23;100.00;102894.78;5207313;28;20033;-60
2022/03/25 03:41:31;;;;;;;42.83;37.47;;;;;;;5.19;100.00;102890.81;5190890;28;20021;-60
2022/03/25 03:44:02;;;;;;;49.25;37.35;;;;;;;5.19;100.00;102898.84;5190267;28;20075;-59
2022/03/25 03:46:33;;;;;;;40.38;36.33;;;;;;;5.16;100.00;102890.31;5207192;28;20084;-60
2022/03/25 03:49:03;;;;;;;42.95;36.67;;;;;;;5.12;100.00;102892.50;5207119;28;20040;-60
2022/03/25 03:51:34;;;;;;;42.60;38.13;;;;;;;5.08;100.00;102896.50;5190383;28;20391;-60
2022/03/25 03:54:05;;;;;;;47.22;37.90;;;;;;;5.03;100.00;102898.84;5206635;28;20440;-60
2022/03/25 03:56:35;;;;;;;44.40;38.20;;;;;;;4.90;100.00;102886.00;5206969;28;20021;-60
2022/03/25 03:59:06;;;;;;;41.40;36.92;;;;;;;4.90;100.00;102895.88;5206777;28;20030;-60
2022/03/25 04:01:36;;;;;;;40.40;35.72;;;;;;;4.84;100.00;102899.22;5190435;28;20089;-59
2022/03/25 04:04:07;;;;;;;41.00;36.70;;;;;;;4.74;100.00;102894.88;5206437;28;20395;-60
2022/03/25 04:06:37;;;;;;;39.88;35.78;;;;;;;4.56;100.00;102872.81;5190323;28;20029;-60
2022/03/25 04:09:08;;;;;;;42.58;38.42;;;;;;;4.56;100.00;102899.56;5207131;28;20032;-60
2022/03/25 04:11:38;;;;;;;41.05;36.35;;;;;;;4.50;100.00;102900.22;5206641;28;20112;-59
2022/03/25 04:14:09;;;;;;;36.33;32.50;;;;;;;4.36;100.00;102903.53;5206114;28;20022;-59
2022/03/25 04:16:39;;;;;;;43.08;38.55;;;;;;;4.26;100.00;102900.19;5206416;28;20037;-59
2022/03/25 04:19:10;;;;;;;39.47;35.53;;;;;;;4.11;100.00;102905.31;5207501;28;20029;-58
2022/03/25 04:21:40;;;;;;;42.00;37.40;;;;;;;4.00;100.00;102911.00;5205873;28;20033;-58
2022/03/25 04:24:11;;;;;;;39.80;35.95;;;;;;;3.86;100.00;102911.59;5188849;28;20030;-56
2022/03/25 04:26:41;;;;;;;44.15;39.45;;;;;;;3.73;100.00;102906.72;5207282;28;20025;-58
2022/03/25 04:29:12;;;;;;;41.67;37.33;;;;;;;3.57;100.00;102898.63;5206230;28;20144;-59
2022/03/25 04:31:42;;;;;;;41.65;37.25;;;;;;;3.56;100.00;102910.28;5206149;28;20052;-58
2022/03/25 04:34:12;;;;;;;42.30;38.13;;;;;;;3.38;100.00;102889.03;5209580;28;20033;-59
2022/03/25 04:36:43;;;;;;;45.78;40.10;;;;;;;3.37;100.00;102911.38;5210847;28;20086;-59
2022/03/25 04:39:13;;;;;;;44.63;40.22;;;;;;;3.24;100.00;102901.09;5189759;28;20021;-56
2022/03/25 04:41:44;;;;;;;41.72;37.40;;;;;;;3.25;100.00;102918.81;5206753;28;20030;-58
2022/03/25 04:44:14;;;;;;;37.67;33.67;;;;;;;3.20;100.00;102915.75;5205764;28;20546;-57
2022/03/25 04:46:45;;;;;;;40.03;36.03;;;;;;;3.13;100.00;102914.75;5206186;28;20436;-55
2022/03/25 04:49:15;;;;;;;45.30;38.28;;;;;;;3.04;100.00;102903.16;5205819;28;20056;-58
2022/03/25 04:51:49;;;;;;;49.63;41.53;;;;;;;3.16;100.00;102914.44;5207795;28;20022;-57
2022/03/25 04:54:19;;;;;;;47.53;41.17;;;;;;;3.23;100.00;102915.44;5205489;28;20021;-58
2022/03/25 04:56:50;;;;;;;44.20;37.95;;;;;;;3.21;100.00;102912.09;5205649;28;20033;-56
2022/03/25 04:59:21;;;;;;;50.78;39.10;;;;;;;3.15;100.00;102915.41;5188593;28;20033;-56
2022/03/25 05:01:51;;;;;;;46.13;38.03;;;;;;;3.15;100.00;102907.41;5205359;28;20442;-55
2022/03/25 05:04:22;;;;;;;45.92;38.28;;;;;;;3.20;100.00;102899.75;5205086;28;20103;-58
2022/03/25 05:06:52;;;;;;;42.40;37.97;;;;;;;3.36;100.00;102931.91;5205241;28;20158;-58
2022/03/25 05:09:23;;;;;;;42.40;37.83;;;;;;;3.34;100.00;102919.69;5205645;28;20036;-59
2022/03/25 05:11:53;;;;;;;45.85;39.90;;;;;;;3.46;100.00;102933.63;5205302;28;20072;-56
2022/03/25 05:14:24;;;;;;;45.10;38.92;;;;;;;3.47;100.00;102937.94;5188497;28;20037;-59
2022/03/25 05:16:54;;;;;;;48.63;42.38;;;;;;;3.39;100.00;102920.91;5188241;28;20132;-59
2022/03/25 05:19:24;;;;;;;43.15;38.63;;;;;;;3.14;100.00;102895.06;5205129;28;20033;-58
2022/03/25 05:21:55;;;;;;;45.95;41.22;;;;;;;3.36;100.00;102936.41;5205105;28;20025;-58
2022/03/25 05:24:26;;;;;;;42.63;36.42;;;;;;;3.33;100.00;102932.22;5204583;28;20402;-59
2022/03/25 05:26:59;;;;;;;53.05;41.88;;;;;;;3.31;100.00;102930.69;5204806;28;20033;-58
2022/03/25 05:29:29;;;;;;;75.80;41.50;;;;;;;3.31;100.00;102931.53;5204379;28;20039;-59
2022/03/25 05:32:00;;;;;;;47.80;40.85;;;;;;;3.28;100.00;102929.16;5204499;28;20029;-59
2022/03/25 05:34:30;;;;;;;42.17;36.10;;;;;;;3.29;100.00;102933.53;5187908;28;20021;-58
2022/03/25 05:37:01;;;;;;;41.35;37.05;;;;;;;3.17;100.00;102916.09;5204525;28;20119;-57
2022/03/25 05:39:32;;;;;;;42.22;35.25;;;;;;;3.18;100.00;102928.44;5205779;28;20112;-58
2022/03/25 05:42:02;;;;;;;41.47;37.28;;;;;;;3.25;100.00;102939.31;5203414;28;20474;-59
2022/03/25 05:44:33;;;;;;;42.00;36.00;;;;;;;3.25;100.00;102934.81;5203500;28;20018;-58
2022/03/25 05:47:04;;;;;;;43.65;37.63;;;;;;;3.24;100.00;102946.50;5203721;28;20036;-58
2022/03/25 05:49:34;;;;;;;42.00;38.13;;;;;;;3.29;100.00;102949.53;5180614;28;20029;-58
2022/03/25 05:52:05;;;;;;;48.95;40.13;;;;;;;3.29;100.00;102952.22;5187283;28;20022;-58
2022/03/25 05:54:36;;;;;;;44.55;39.80;;;;;;;3.11;100.00;102905.22;5195470;28;20052;-59
2022/03/25 05:57:07;;;;;;;41.88;37.60;;;;;;;3.35;100.00;102948.91;5204625;28;20104;-58
2022/03/25 05:59:38;;;;;;;49.05;35.75;;;;;;;3.38;100.00;102955.78;5186968;28;20499;-57
2022/03/25 06:02:08;;;;;;;42.70;38.42;;;;;;;3.37;100.00;102949.59;5187329;28;20044;-57
2022/03/25 06:04:39;;;;;;;43.13;38.10;;;;;;;3.45;100.00;102948.81;5187347;28;20083;-57
2022/03/25 06:07:11;;;;;;;47.47;40.30;;;;;;;3.50;100.00;102954.50;5186834;28;20120;-58
2022/03/25 06:09:42;;;;;;;40.83;36.45;;;;;;;3.47;100.00;102948.63;5187242;28;20558;-58
2022/03/25 06:12:12;;;;;;;39.47;35.35;;;;;;;3.35;100.00;102927.56;5204796;28;20027;-57
2022/03/25 06:14:42;;;;;;;44.22;35.58;;;;;;;3.55;100.00;102962.03;5186651;28;20024;-57
2022/03/25 06:17:13;;;;;;;41.78;37.47;;;;;;;3.60;100.00;102962.41;5204899;28;20025;-57
2022/03/25 06:19:44;;;;;;;40.95;36.15;;;;;;;3.64;100.00;102956.59;5187140;28;20411;-56
2022/03/25 06:22:14;;;;;;;44.47;38.95;;;;;;;3.68;100.00;102952.63;5187241;28;20033;-57
2022/03/25 06:24:45;;;;;;;40.72;35.85;;;;;;;3.75;100.00;102962.69;5186869;28;20017;-57
2022/03/25 06:27:16;;;;;;;45.35;39.50;;;;;;;3.76;100.00;102959.81;5171264;28;20084;-59
2022/03/25 06:29:47;;;;;;;44.55;39.80;;;;;;;3.81;100.00;102951.31;5204789;28;20018;-59
2022/03/25 06:32:17;;;;;;;41.08;36.67;;;;;;;3.98;100.00;102969.97;5185311;28;20115;-59
2022/03/25 06:34:48;;;;;;;42.20;37.90;;;;;;;4.04;100.00;102963.94;5201756;28;20104;-59
2022/03/25 06:37:18;;;;;;;40.75;35.42;;;;;;;4.10;100.00;102966.97;5186397;28;20060;-59
2022/03/25 06:39:48;;;;;;;40.55;36.60;;;;;;;3.91;100.00;102936.00;5202644;28;20025;-60
2022/03/25 06:42:19;;;;;;;46.00;36.75;;;;;;;4.20;100.00;102973.03;5187236;28;20068;-59
2022/03/25 06:44:50;;;;;;;44.15;38.55;;;;;;;4.11;100.00;102939.25;5186971;28;20033;-60
2022/03/25 06:47:20;;;;;;;42.15;36.65;;;;;;;4.33;100.00;102973.44;5204196;28;20025;-60
2022/03/25 06:49:51;;;;;;;47.33;37.53;;;;;;;4.44;100.00;102981.13;5204377;28;20034;-60
2022/03/25 06:52:22;;;;;;;50.95;39.35;;;;;;;4.45;100.00;102964.06;5205428;28;20025;-59
2022/03/25 06:54:53;;;;;;;43.47;38.30;;;;;;;4.60;100.00;102970.47;5187462;28;20563;-59
2022/03/25 06:57:24;;;;;;;42.25;38.05;;;;;;;4.68;100.00;102981.16;5187704;28;20031;-60
2022/03/25 06:59:55;;;;;;;39.63;35.75;;;;;;;4.77;100.00;102975.84;5187778;28;20025;-59
2022/03/25 07:02:25;;;;;;;45.50;37.85;;;;;;;4.81;100.00;102983.38;5184936;28;20025;-59
2022/03/25 07:04:56;;;;;;;42.20;35.53;;;;;;;4.95;100.00;102976.50;5200812;28;20160;-60
2022/03/25 07:07:27;;;;;;;46.60;41.33;;;;;;;4.95;100.00;102963.13;5187884;28;20025;-63
2022/03/25 07:09:58;;;;;;;43.10;38.45;;;;;;;5.12;100.00;102980.88;5190895;28;20103;-60
2022/03/25 07:12:29;;;;;;;52.13;40.63;;;;;;;5.24;100.00;102987.53;5191370;28;20021;-57
2022/03/25 07:15:02;;;;;;;39.88;36.20;;;;;;;5.32;100.00;102979.50;5190947;28;20037;-60
2022/03/25 07:17:34;;;;;;;41.35;37.08;;;;;;;5.40;100.00;102984.88;5207439;28;20025;-59
2022/03/25 07:20:06;;;;;;;48.67;38.35;;;;;;;5.58;100.00;102991.84;5207657;28;20059;-60
2022/03/25 07:22:36;;;;;;;46.83;38.75;;;;;;;5.65;100.00;102988.31;5220755;23;20036;-59
2022/03/25 07:25:07;;;;;;;53.88;40.05;;;;;;;5.75;100.00;102993.50;5251861;28;20031;-59
2022/03/25 07:27:39;;;;;;;48.17;36.25;;;;;;;5.83;100.00;102985.41;5270935;28;20474;-58
2022/03/25 07:30:10;;;;;;;48.38;38.50;;;;;;;5.91;100.00;102998.84;5270603;28;20024;-58
2022/03/25 07:32:41;;;;;;;48.15;39.95;;;;;;;5.98;100.00;102990.94;5268854;28;20097;-59
2022/03/25 07:35:12;;;;;;;45.10;39.63;;;;;;;6.06;100.00;102993.59;5268753;28;20020;-59
2022/03/25 07:37:44;;;;;;;50.13;38.95;;;;;;;6.13;100.00;103001.75;5268747;28;20028;-59
2022/03/25 07:40:15;;;;;;;44.38;39.42;;;;;;;6.21;100.00;103001.75;5268642;28;20026;-62
2022/03/25 07:42:46;;;;;;;46.63;41.63;;;;;;;6.31;100.00;103011.25;5251896;28;20082;-59
2022/03/25 07:45:17;;;;;;;44.75;39.92;;;;;;;6.33;100.00;103009.22;5268208;28;20032;-58
2022/03/25 07:47:49;;;;;;;45.40;38.17;;;;;;;6.49;100.00;103007.47;5268394;28;20034;-58
2022/03/25 07:50:23;;;;;;;55.55;43.08;;;;;;;6.61;100.00;103016.81;5268291;28;20031;-58
2022/03/25 07:52:54;;;;;;;51.60;43.58;;;;;;;6.50;100.00;102988.50;5250998;28;20024;-58
2022/03/25 07:55:25;;;;;;;53.28;42.55;;;;;;;6.75;100.00;103016.84;5267876;28;20031;-58
2022/03/25 07:57:56;;;;;;;48.53;41.28;;;;;;;6.87;100.00;103021.84;5251293;28;20085;-58
2022/03/25 08:00:27;;;;;;;44.88;40.08;;;;;;;6.94;100.00;103022.75;5268072;28;20027;-58
2022/03/25 08:02:57;;;;;;;49.70;37.97;;;;;;;7.08;100.00;103027.38;5250812;28;20077;-57
2022/03/25 08:05:29;;;;;;;51.30;43.42;;;;;;;7.16;100.00;103029.16;5267313;28;20119;-58
2022/03/25 08:08:02;;;;;;;46.58;41.42;;;;;;;7.08;100.00;103003.19;5267474;28;20165;-58
2022/03/25 08:10:34;;;;;;;49.67;43.40;;;;;;;7.33;100.00;103026.16;5267499;28;20028;-58
2022/03/25 08:13:07;;;;;;;53.83;44.47;;;;;;;7.43;100.00;103029.44;5267500;28;20444;-58
2022/03/25 08:15:38;;;;;;;50.60;41.08;;;;;;;7.53;100.00;103022.94;5267606;28;20028;-58
2022/03/25 08:18:17;;;;;;;59.70;46.03;;;;;;;7.73;100.00;103024.09;5250883;28;20023;-57
2022/03/25 08:20:48;;;;;;;54.17;41.00;;;;;;;7.91;100.00;103026.41;5251030;28;20016;-58
2022/03/25 08:29:03;;;;;;;47.08;42.08;;;;;;;8.40;100.00;103037.44;5269537;28;20093;-58
2022/03/25 08:31:34;;;;;;;56.15;41.75;;;;;;;8.43;100.00;103002.91;5267940;28;20390;-57
2022/03/25 08:34:07;;;;;;;49.35;42.70;;;;;;;8.86;100.00;103032.59;5268107;28;20499;-58
2022/03/25 08:36:38;;;;;;;51.25;39.50;;;;;;;8.98;100.00;103038.28;5267748;28;20031;-57
2022/03/25 08:39:09;;;;;;;49.17;40.85;;;;;;;9.08;100.00;103031.56;5268880;28;20393;-57
2022/03/25 08:41:40;;;;;;;48.17;43.13;;;;;;;9.19;100.00;103032.09;5267150;28;20477;-57
2022/03/25 08:44:11;;;;;;;48.55;42.33;;;;;;;9.38;100.00;103037.66;5266787;28;20034;-57
2022/03/25 08:46:41;;;;;;;47.95;42.30;;;;;;;9.58;100.00;103039.66;5266983;28;20020;-57
2022/03/25 08:49:12;;;;;;;46.65;41.03;;;;;;;9.77;100.00;103029.03;5250259;28;20393;-57
2022/03/25 08:51:42;;;;;;;46.60;39.35;;;;;;;10.03;100.00;103041.84;5266792;28;20458;-57
2022/03/25 08:54:14;;;;;;;50.97;35.80;;;;;;;10.21;100.00;103049.44;5266421;28;20454;-56
2022/03/25 08:56:44;;;;;;;44.25;33.10;;;;;;;10.34;100.00;103041.41;5250172;28;20020;-58
2022/03/25 08:59:15;;;;;;;49.55;35.20;;;;;;;10.49;100.00;103047.47;5266885;28;20407;-57
2022/03/25 09:01:46;;;;;;;38.15;33.45;;;;;;;10.67;100.00;103033.44;5267234;28;20027;-58
2022/03/25 09:04:16;;;;;;;31.35;28.30;;;;;;;11.02;100.00;103035.97;5249960;28;20082;-57
2022/03/25 09:06:47;;;;;;;37.13;29.60;;;;;;;11.19;96.55;103048.09;5249999;28;20374;-57
2022/03/25 09:09:17;;;;;;;33.28;28.48;;;;;;;11.30;95.62;103052.84;5266841;28;20030;-58
2022/03/25 09:11:48;;;;;;;29.05;24.30;;;;;;;11.54;88.74;103047.88;5266784;28;20031;-57
2022/03/25 09:14:19;;;;;;;30.13;26.77;;;;;;;11.71;86.87;103046.41;5249606;28;20085;-58
2022/03/25 09:16:49;;;;;;;30.55;27.38;;;;;;;11.81;84.96;103054.97;5266645;28;20077;-58
2022/03/25 09:19:19;;;;;;;29.35;26.08;;;;;;;11.92;84.18;103051.59;5266437;28;20032;-58
2022/03/25 09:21:50;;;;;;;31.52;28.15;;;;;;;12.09;81.31;103046.56;5266192;28;20028;-57
2022/03/25 09:24:21;;;;;;;26.50;22.50;;;;;;;12.20;79.76;103056.72;5265869;28;20066;-58
2022/03/25 09:26:51;;;;;;;30.77;23.20;;;;;;;12.22;79.31;103056.53;5266440;28;20076;-58
2022/03/25 09:29:21;;;;;;;34.10;27.58;;;;;;;12.17;78.96;103057.16;5249340;28;20031;-57
2022/03/25 09:31:52;;;;;;;30.63;27.35;;;;;;;12.24;79.45;103062.56;5265451;28;20081;-58
2022/03/25 09:37:11;;;;;;;29.08;26.10;;;;;;;12.41;79.57;103048.34;5267637;28;20093;-58
2022/03/25 09:39:42;;;;;;;33.65;27.25;;;;;;;12.56;80.71;103049.94;5266218;28;20027;-58
2022/03/25 09:42:13;;;;;;;29.35;25.33;;;;;;;12.70;79.70;103046.94;5267313;28;20028;-58
2022/03/25 09:44:44;;;;;;;30.83;27.08;;;;;;;12.87;77.88;103039.13;5249114;28;20035;-58
2022/03/25 09:47:16;;;;;;;35.08;23.45;;;;;;;13.08;75.96;103037.94;5249492;28;20028;-58
2022/03/25 09:49:47;;;;;;;32.10;25.80;;;;;;;13.28;76.39;103044.06;5266146;28;20085;-58
2022/03/25 09:52:21;;;;;;;26.70;22.15;;;;;;;13.30;71.98;103047.38;5249050;28;20031;-58
2022/03/25 09:54:51;;;;;;;28.92;24.17;;;;;;;13.27;70.37;103031.56;5266072;28;20473;-56
2022/03/25 09:57:22;;;;;;;31.08;24.60;;;;;;;13.58;70.65;103044.22;5265748;28;20789;-58
2022/03/25 09:59:53;;;;;;;34.45;24.50;;;;;;;13.60;70.53;103046.72;5267419;28;20035;-58
2022/03/25 10:02:27;;;;;;;32.75;22.77;;;;;;;13.67;68.63;103042.06;5269502;28;20027;-58
2022/03/25 10:04:58;;;;;;;28.13;24.05;;;;;;;13.69;68.23;103045.41;5286334;28;20135;-58
2022/03/25 10:07:33;;;;;;;28.38;24.05;;;;;;;13.63;68.41;103041.69;5269715;28;20024;-58
2022/03/25 10:10:21;;;;;;;29.15;25.65;;;;;;;13.80;68.66;103044.66;5268893;28;20039;-58
2022/03/25 10:13:00;;;;;;;31.02;25.75;;;;;;;13.77;68.35;103050.53;5264062;28;20032;-57
2022/03/25 10:15:32;;;;;;;27.30;24.13;;;;;;;13.99;70.26;103042.78;5268829;28;20020;-57
2022/03/25 10:18:05;;;;;;;28.67;25.73;;;;;;;14.35;69.14;103044.69;5269363;28;20061;-58
2022/03/25 10:20:41;;;;;;;25.25;22.52;;;;;;;14.38;65.50;103049.66;5269452;28;20043;-58
2022/03/25 10:23:19;;;;;;;31.98;23.73;;;;;;;14.29;67.63;103040.97;5269160;28;20066;-58
2022/03/25 10:25:59;;;;;;;31.48;24.70;;;;;;;14.25;66.30;103041.66;5268980;28;20023;-58
2022/03/25 10:28:36;;;;;;;;;;;;;;;14.33;66.33;103042.19;5286573;28;20024;-58
2022/03/25 10:31:17;;;;;;;32.17;24.80;;;;;;;14.40;64.95;103039.41;5269046;28;19943;-58
2022/03/25 10:33:50;;;;;;;27.58;24.10;;;;;;;14.40;65.28;103036.69;5285699;28;20080;-59
2022/03/25 10:36:23;;;;;;;31.48;26.67;;;;;;;14.42;66.47;103040.03;5285921;28;20504;-58
2022/03/25 10:38:54;;;;;;;29.70;26.58;;;;;;;14.35;65.91;103029.19;5268898;28;20027;-59
2022/03/25 10:41:36;;;;;;;30.73;24.88;;;;;;;14.50;64.70;103026.09;5269153;28;20050;-57
2022/03/25 10:44:09;;;;;;;28.23;23.77;;;;;;;14.74;63.97;103029.75;5289819;28;20452;-59
2022/03/25 10:46:42;;;;;;;33.58;21.27;;;;;;;14.69;62.38;103019.59;5273395;28;20118;-59
2022/03/25 10:49:15;;;;;;;31.15;23.77;;;;;;;14.58;62.02;103017.63;5290352;28;20063;-59
2022/03/25 10:51:57;;;;;;;29.65;23.70;;;;;;;14.51;64.15;103027.75;5254831;28;20020;-58
2022/03/25 10:54:28;;;;;;;34.22;22.90;;;;;;;14.53;64.53;103025.66;5269181;28;20027;-59
2022/03/25 10:57:00;;;;;;;33.85;23.90;;;;;;;14.76;64.30;103003.97;5252203;28;20032;-59
2022/03/25 10:59:35;;;;;;;50.92;25.58;;;;;;;15.28;63.73;103017.84;5269109;28;20030;-58
2022/03/25 11:02:07;;;;;;;23.10;21.00;;;;;;;15.22;60.81;103016.03;5270343;28;20116;-59
2022/03/25 11:04:40;;;;;;;40.33;21.27;;;;;;;15.13;61.01;102987.50;5253270;28;20032;-58
2022/03/25 11:07:11;;;;;;;37.03;20.33;;;;;;;15.06;59.70;103019.44;5253262;28;20024;-57
2022/03/25 11:09:42;;;;;;;26.30;20.80;;;;;;;15.26;60.54;103025.41;5270333;28;20778;-57
2022/03/25 11:12:14;;;;;;;26.27;19.83;;;;;;;15.43;57.74;103012.75;5252257;28;20028;-58
2022/03/25 11:14:44;;;;;;;27.40;20.58;;;;;;;15.40;58.70;103012.38;5268875;28;20024;-58
2022/03/25 11:17:18;;;;;;;26.95;18.73;;;;;;;15.49;58.46;103006.34;5270120;28;20035;-58
2022/03/25 11:19:49;;;;;;;23.83;19.40;;;;;;;15.56;57.46;103008.13;5271133;28;20179;-59
2022/03/25 11:22:22;;;;;;;26.50;20.45;;;;;;;15.58;57.83;103006.03;5252297;28;20375;-59
2022/03/25 11:24:59;;;;;;;29.45;22.40;;;;;;;15.61;58.02;102995.47;5269054;28;20032;-58
2022/03/25 11:27:33;;;;;;;25.38;20.75;;;;;;;15.54;58.26;102992.03;5269357;28;20032;-58
2022/03/25 11:30:09;;;;;;;21.77;17.98;;;;;;;15.64;54.49;102996.91;5269067;28;20566;-58
2022/03/25 11:33:03;;;;;;;20.00;17.38;;;;;;;15.45;54.50;102980.66;5252065;28;20385;-59
2022/03/25 11:35:37;;;;;;;24.58;20.33;;;;;;;15.44;55.82;102989.91;5269284;28;20504;-60
2022/03/25 11:38:10;;;;;;;28.08;23.55;;;;;;;15.52;56.23;102984.09;5252836;28;20036;-58